createdAt,value
2018-06-18T00:02:43.478Z,3.50
2018-06-18T00:07:46.605Z,4.07
2018-06-18T00:12:48.752Z,3.80
2018-06-18T00:17:50.874Z,4.73
2018-06-18T00:22:53.003Z,3.73
2018-06-18T00:27:55.131Z,4.17
2018-06-18T00:32:57.952Z,3.87
2018-06-18T00:38:00.056Z,4.00
2018-06-18T00:43:02.496Z,4.10
2018-06-18T00:48:04.684Z,4.87
2018-06-18T00:53:06.804Z,4.07
2018-06-18T00:58:08.919Z,3.63
2018-06-18T01:03:11.207Z,3.67
2018-06-18T01:08:13.334Z,4.17
2018-06-18T01:13:15.518Z,4.13
2018-06-18T01:18:17.684Z,3.97
2018-06-18T01:23:44.286Z,4.43
2018-06-18T01:28:46.450Z,5.27
2018-06-18T01:33:49.357Z,4.23
2018-06-18T01:38:51.483Z,4.20
2018-06-18T01:43:53.607Z,3.93
2018-06-18T01:48:55.742Z,4.87
2018-06-18T01:53:57.889Z,3.40
2018-06-18T01:59:00.031Z,5.60
2018-06-18T02:04:02.275Z,4.77
2018-06-18T02:09:07.435Z,4.70
2018-06-18T02:14:10.484Z,4.90
2018-06-18T02:19:12.603Z,5.60
2018-06-18T02:24:14.724Z,5.10
2018-06-18T02:29:22.570Z,4.93
2018-06-18T02:34:30.457Z,5.27
2018-06-18T02:39:37.179Z,4.77
2018-06-18T02:44:39.304Z,5.07
2018-06-18T02:49:41.446Z,5.47
2018-06-18T02:54:43.581Z,5.10
2018-06-18T02:59:45.731Z,5.30
2018-06-18T03:04:47.847Z,5.70
2018-06-18T03:09:49.956Z,5.67
2018-06-18T03:14:52.133Z,5.67
2018-06-18T03:19:59.910Z,4.53
2018-06-18T03:25:07.830Z,5.20
2018-06-18T03:30:10.005Z,6.00
2018-06-18T03:35:12.140Z,5.50
2018-06-18T03:40:14.267Z,6.73
2018-06-18T03:45:28.876Z,7.10
2018-06-18T03:50:31.013Z,6.60
2018-06-18T03:55:39.252Z,6.60
2018-06-18T04:00:58.879Z,6.80
2018-06-18T04:06:06.810Z,5.97
2018-06-18T04:11:14.520Z,6.17
2018-06-18T04:16:16.678Z,5.60
2018-06-18T04:21:18.827Z,6.30
2018-06-18T04:26:20.960Z,5.80
2018-06-18T04:31:23.131Z,6.37
2018-06-18T04:36:25.263Z,7.60
2018-06-18T04:41:27.396Z,7.17
2018-06-18T04:46:35.232Z,7.90
2018-06-18T04:51:37.358Z,5.97
2018-06-18T04:56:39.517Z,6.60
2018-06-18T05:01:41.610Z,7.00
2018-06-18T05:06:43.748Z,7.63
2018-06-18T05:11:45.847Z,7.40
2018-06-18T05:16:48.099Z,7.97
2018-06-18T05:21:50.237Z,8.80
2018-06-18T05:26:53.928Z,8.50
2018-06-18T05:31:56.048Z,7.57
2018-06-18T05:37:00.541Z,8.50
2018-06-18T05:42:02.689Z,7.07
2018-06-18T05:47:05.006Z,8.00
2018-06-18T05:52:07.139Z,7.40
2018-06-18T05:57:09.277Z,7.63
2018-06-18T06:02:11.418Z,6.77
2018-06-18T06:07:13.555Z,7.07
2018-06-18T06:12:15.690Z,6.70
2018-06-18T06:17:17.879Z,6.37
2018-06-18T06:22:20.062Z,6.87
2018-06-18T06:27:23.072Z,6.03
2018-06-18T06:32:25.248Z,6.53
2018-06-18T06:37:27.454Z,6.40
2018-06-18T06:42:29.585Z,6.33
2018-06-18T06:47:31.743Z,6.23
2018-06-18T06:52:33.885Z,4.90
2018-06-18T06:57:36.032Z,6.10
2018-06-18T07:02:38.177Z,4.97
2018-06-18T07:07:40.319Z,5.90
2018-06-18T07:12:42.480Z,6.13
2018-06-18T07:17:44.743Z,5.97
2018-06-18T07:22:47.414Z,6.20
2018-06-18T07:27:49.645Z,5.33
2018-06-18T07:32:52.320Z,6.07
2018-06-18T07:37:54.468Z,6.40
2018-06-18T07:42:56.607Z,6.90
2018-06-18T07:47:58.790Z,6.73
2018-06-18T07:53:00.955Z,6.17
2018-06-18T07:58:03.142Z,6.83
2018-06-18T08:03:05.526Z,6.10
2018-06-18T08:08:07.683Z,5.50
2018-06-18T08:13:09.942Z,4.70
2018-06-18T08:18:12.111Z,5.43
2018-06-18T08:23:14.228Z,4.80
2018-06-18T08:28:16.707Z,4.10
2018-06-18T08:33:18.973Z,5.70
2018-06-18T08:38:21.382Z,5.20
2018-06-18T08:43:23.657Z,4.23
2018-06-18T08:48:31.566Z,4.03
2018-06-18T08:53:39.487Z,4.00
2018-06-18T08:58:47.366Z,3.90
2018-06-18T09:03:51.817Z,4.60
2018-06-18T09:08:55.483Z,4.70
2018-06-18T09:14:04.544Z,5.83
2018-06-18T09:19:06.788Z,5.47
2018-06-18T09:24:08.984Z,6.20
2018-06-18T09:29:11.156Z,6.27
2018-06-18T09:34:13.531Z,5.67
2018-06-18T09:39:15.664Z,5.20
2018-06-18T09:44:17.924Z,5.53
2018-06-18T09:49:25.818Z,5.37
2018-06-18T09:54:42.329Z,5.97
2018-06-18T09:59:50.400Z,5.47
2018-06-18T10:04:52.567Z,5.07
2018-06-18T10:09:55.242Z,4.90
2018-06-18T10:14:57.350Z,5.27
2018-06-18T10:20:01.583Z,5.80
2018-06-18T10:25:03.964Z,6.53
2018-06-18T10:30:06.194Z,7.23
2018-06-18T10:35:14.124Z,7.40
2018-06-18T10:41:20.347Z,8.53
2018-06-18T10:46:22.754Z,8.90
2018-06-18T10:51:24.912Z,8.50
2018-06-18T10:56:27.095Z,8.47
2018-06-18T11:01:30.880Z,9.33
2018-06-18T11:06:37.276Z,8.43
2018-06-18T11:11:39.458Z,10.27
2018-06-18T11:16:41.801Z,12.70
2018-06-18T11:21:49.582Z,12.07
2018-06-18T11:26:54.656Z,13.13
2018-06-18T11:31:57.120Z,12.13
2018-06-18T11:36:59.548Z,13.37
2018-06-18T11:42:01.716Z,12.73
2018-06-18T11:47:03.927Z,12.50
2018-06-18T11:52:06.564Z,13.40
2018-06-18T11:57:08.752Z,13.13
2018-06-18T12:02:16.542Z,13.40
2018-06-18T12:07:24.355Z,15.57
2018-06-18T12:12:26.432Z,15.37
2018-06-18T12:17:28.576Z,14.53
2018-06-18T12:22:30.770Z,14.60
2018-06-18T12:27:34.035Z,15.40
2018-06-18T12:32:36.238Z,12.80
2018-06-18T12:37:38.495Z,12.07
2018-06-18T12:42:40.692Z,11.47
2018-06-18T12:47:48.633Z,13.00
2018-06-18T12:52:56.615Z,12.23
2018-06-18T12:57:58.803Z,11.57
2018-06-18T13:03:10.118Z,13.93
2018-06-18T13:08:12.311Z,11.77
2018-06-18T13:13:14.508Z,13.00
2018-06-18T13:18:16.716Z,12.77
2018-06-18T13:23:18.899Z,13.17
2018-06-18T13:28:21.088Z,13.30
2018-06-18T13:33:23.316Z,13.67
2018-06-18T13:38:31.234Z,13.43
2018-06-18T13:43:39.167Z,13.13
2018-06-18T13:48:46.402Z,13.13
2018-06-18T13:53:48.541Z,15.20
2018-06-18T13:58:51.363Z,14.77
2018-06-18T14:03:53.539Z,16.70
2018-06-18T14:08:55.701Z,16.67
2018-06-18T14:13:58.247Z,16.87
2018-06-18T14:19:05.035Z,16.43
2018-06-18T14:24:07.232Z,16.80
2018-06-18T14:29:13.973Z,16.07
2018-06-18T14:34:21.803Z,19.10
2018-06-18T14:39:29.724Z,17.97
2018-06-18T14:44:32.020Z,17.33
2018-06-18T14:49:34.162Z,20.27
2018-06-18T14:54:36.339Z,19.60
2018-06-18T14:59:46.141Z,18.50
2018-06-18T15:04:48.322Z,22.20
2018-06-18T15:09:50.527Z,21.33
2018-06-18T15:14:58.317Z,20.50
2018-06-18T15:20:00.540Z,18.53
2018-06-18T15:25:05.785Z,20.93
2018-06-18T15:30:07.935Z,18.30
2018-06-18T15:35:10.083Z,20.03
2018-06-18T15:40:12.272Z,21.57
2018-06-18T15:45:14.779Z,19.67
2018-06-18T15:50:16.974Z,20.93
2018-06-18T15:55:19.767Z,22.97
2018-06-18T16:00:21.926Z,20.43
2018-06-18T16:05:24.079Z,20.37
2018-06-18T16:10:26.222Z,16.50
2018-06-18T16:15:28.415Z,17.00
2018-06-18T16:20:30.605Z,14.87
2018-06-18T16:25:32.834Z,11.43
2018-06-18T16:30:35.023Z,10.43
2018-06-18T16:35:37.189Z,12.47
2018-06-18T16:40:39.428Z,10.00
2018-06-18T16:45:41.626Z,7.80
2018-06-18T16:50:43.824Z,6.57
2018-06-18T16:55:46.065Z,7.33
2018-06-18T17:00:48.295Z,7.80
2018-06-18T17:05:50.519Z,7.17
2018-06-18T17:10:52.698Z,8.73
2018-06-18T17:15:54.932Z,8.00
2018-06-18T17:20:57.124Z,6.80
2018-06-18T17:25:59.404Z,8.07
2018-06-18T17:31:01.673Z,8.67
2018-06-18T17:36:03.917Z,7.43
2018-06-18T17:41:06.203Z,7.47
2018-06-18T17:46:10.299Z,7.40
2018-06-18T17:51:13.504Z,7.93
2018-06-18T17:56:15.789Z,7.70
2018-06-18T18:01:18.461Z,8.17
2018-06-18T18:06:22.022Z,8.03
2018-06-18T18:11:26.508Z,8.30
2018-06-18T18:16:30.023Z,7.97
2018-06-18T18:21:32.936Z,9.27
2018-06-18T18:26:35.320Z,9.73
2018-06-18T18:31:37.552Z,9.47
2018-06-18T18:36:39.768Z,9.00
2018-06-18T18:41:42.679Z,9.20
2018-06-18T18:46:44.884Z,8.97
2018-06-18T18:51:48.034Z,11.33
2018-06-18T18:57:01.644Z,9.87
2018-06-18T19:02:03.873Z,10.90
2018-06-18T19:07:06.524Z,11.03
2018-06-18T19:12:08.733Z,11.87
2018-06-18T19:17:10.961Z,10.60
2018-06-18T19:22:13.325Z,10.87
2018-06-18T19:27:15.568Z,10.87
2018-06-18T19:32:17.856Z,11.20
2018-06-18T19:37:20.179Z,12.27
2018-06-18T19:42:23.264Z,12.30
2018-06-18T19:47:43.794Z,10.43
2018-06-18T19:52:46.045Z,11.63
2018-06-18T19:57:48.235Z,10.47
2018-06-18T20:02:50.414Z,12.07
2018-06-18T20:07:57.591Z,12.90
2018-06-18T20:12:59.825Z,12.17
2018-06-18T20:18:02.052Z,13.30
2018-06-18T20:23:06.471Z,13.53
2018-06-18T20:28:08.700Z,12.50
2018-06-18T20:33:12.309Z,12.87
2018-06-18T20:38:14.534Z,13.33
2018-06-18T20:43:16.994Z,14.60
2018-06-18T20:48:19.266Z,13.20
2018-06-18T20:53:21.478Z,14.43
2018-06-18T20:58:23.664Z,13.37
2018-06-18T21:03:25.847Z,13.20
2018-06-18T21:08:28.036Z,14.13
2018-06-18T21:13:30.191Z,12.50
2018-06-18T21:18:32.380Z,13.53
2018-06-18T21:23:34.555Z,13.20
2018-06-18T21:28:36.764Z,13.10
2018-06-18T21:33:39.048Z,12.40
2018-06-18T21:38:41.207Z,13.80
2018-06-18T21:43:43.539Z,12.93
2018-06-18T21:48:45.673Z,14.00
2018-06-18T21:53:47.843Z,14.80
2018-06-18T21:58:50.027Z,16.57
2018-06-18T22:03:52.168Z,14.70
2018-06-18T22:08:54.345Z,16.47
2018-06-18T22:13:56.510Z,14.63
2018-06-18T22:18:58.695Z,16.37
2018-06-18T22:24:01.593Z,13.67
2018-06-18T22:29:04.817Z,14.60
2018-06-18T22:34:07.613Z,14.37
2018-06-18T22:39:11.519Z,15.40
2018-06-18T22:44:14.009Z,14.00
2018-06-18T22:49:16.387Z,13.17
2018-06-18T22:54:18.874Z,12.90
2018-06-18T22:59:21.360Z,10.80
2018-06-18T23:04:23.950Z,12.23
2018-06-18T23:09:26.842Z,11.90
2018-06-18T23:14:29.335Z,12.83
2018-06-18T23:19:31.780Z,11.87
2018-06-18T23:24:34.534Z,10.87
2018-06-18T23:29:39.194Z,11.93
2018-06-18T23:34:41.973Z,11.60
2018-06-18T23:39:44.444Z,11.00
2018-06-18T23:44:46.922Z,12.50
2018-06-18T23:49:49.413Z,13.00
2018-06-18T23:54:52.524Z,12.70
2018-06-18T23:59:58.274Z,11.13
